sensor_id;sensor_type;location;lat;lon;timestamp;P1;durP1;ratioP1;P2;durP2;ratioP2
29954;SDS011;68448;51.188;6.868;2023-11-21T00:01:12;25.90;;;15.90;;
29954;SDS011;68448;51.188;6.868;2023-11-21T00:03:39;35.67;;;17.00;;
29954;SDS011;68448;51.188;6.868;2023-11-21T00:06:06;35.43;;;16.80;;
29954;SDS011;68448;51.188;6.868;2023-11-21T00:08:34;32.70;;;16.07;;
29954;SDS011;68448;51.188;6.868;2023-11-21T00:11:02;35.17;;;17.60;;
29954;SDS011;68448;51.188;6.868;2023-11-21T00:13:30;32.80;;;16.70;;
29954;SDS011;68448;51.188;6.868;2023-11-21T00:15:57;26.70;;;15.67;;
29954;SDS011;68448;51.188;6.868;2023-11-21T00:18:24;35.10;;;17.20;;
29954;SDS011;68448;51.188;6.868;2023-11-21T00:20:51;35.30;;;16.07;;
29954;SDS011;68448;51.188;6.868;2023-11-21T00:23:18;37.53;;;15.90;;
29954;SDS011;68448;51.188;6.868;2023-11-21T00:25:45;36.23;;;17.50;;
29954;SDS011;68448;51.188;6.868;2023-11-21T00:28:14;39.53;;;17.00;;
29954;SDS011;68448;51.188;6.868;2023-11-21T00:30:41;33.60;;;15.60;;
29954;SDS011;68448;51.188;6.868;2023-11-21T00:33:08;29.80;;;15.47;;
29954;SDS011;68448;51.188;6.868;2023-11-21T00:35:35;41.10;;;16.93;;
29954;SDS011;68448;51.188;6.868;2023-11-21T00:38:03;34.77;;;16.50;;
29954;SDS011;68448;51.188;6.868;2023-11-21T00:40:31;37.90;;;17.27;;
29954;SDS011;68448;51.188;6.868;2023-11-21T00:43:00;39.33;;;17.20;;
29954;SDS011;68448;51.188;6.868;2023-11-21T00:45:28;46.27;;;19.90;;
29954;SDS011;68448;51.188;6.868;2023-11-21T00:47:55;40.50;;;17.03;;
29954;SDS011;68448;51.188;6.868;2023-11-21T00:50:23;39.90;;;18.07;;
29954;SDS011;68448;51.188;6.868;2023-11-21T00:52:50;31.43;;;17.30;;
29954;SDS011;68448;51.188;6.868;2023-11-21T00:55:17;36.90;;;17.30;;
29954;SDS011;68448;51.188;6.868;2023-11-21T00:57:44;37.77;;;17.70;;
29954;SDS011;68448;51.188;6.868;2023-11-21T01:00:11;40.10;;;16.60;;
29954;SDS011;68448;51.188;6.868;2023-11-21T01:02:40;36.10;;;16.30;;
29954;SDS011;68448;51.188;6.868;2023-11-21T01:05:07;26.60;;;16.40;;
29954;SDS011;68448;51.188;6.868;2023-11-21T01:07:35;36.13;;;17.27;;
29954;SDS011;68448;51.188;6.868;2023-11-21T01:10:02;25.07;;;15.40;;
29954;SDS011;68448;51.188;6.868;2023-11-21T01:12:29;30.80;;;16.60;;
29954;SDS011;68448;51.188;6.868;2023-11-21T01:14:56;29.30;;;15.73;;
29954;SDS011;68448;51.188;6.868;2023-11-21T01:17:23;38.63;;;16.43;;
29954;SDS011;68448;51.188;6.868;2023-11-21T01:19:52;28.57;;;15.67;;
29954;SDS011;68448;51.188;6.868;2023-11-21T01:22:19;34.67;;;16.97;;
29954;SDS011;68448;51.188;6.868;2023-11-21T01:24:46;32.27;;;15.93;;
29954;SDS011;68448;51.188;6.868;2023-11-21T01:27:13;37.40;;;15.97;;
29954;SDS011;68448;51.188;6.868;2023-11-21T01:29:40;34.87;;;16.57;;
29954;SDS011;68448;51.188;6.868;2023-11-21T01:32:07;24.40;;;14.90;;
29954;SDS011;68448;51.188;6.868;2023-11-21T01:34:35;40.30;;;17.67;;
29954;SDS011;68448;51.188;6.868;2023-11-21T01:37:03;28.87;;;16.43;;
29954;SDS011;68448;51.188;6.868;2023-11-21T01:39:31;40.93;;;16.63;;
29954;SDS011;68448;51.188;6.868;2023-11-21T01:41:58;38.03;;;16.43;;
29954;SDS011;68448;51.188;6.868;2023-11-21T01:44:25;30.50;;;15.60;;
29954;SDS011;68448;51.188;6.868;2023-11-21T01:46:52;32.50;;;16.70;;
29954;SDS011;68448;51.188;6.868;2023-11-21T01:49:19;32.17;;;16.00;;
29954;SDS011;68448;51.188;6.868;2023-11-21T01:51:47;43.30;;;18.30;;
29954;SDS011;68448;51.188;6.868;2023-11-21T01:54:16;34.80;;;18.97;;
29954;SDS011;68448;51.188;6.868;2023-11-21T01:56:43;35.37;;;17.37;;
29954;SDS011;68448;51.188;6.868;2023-11-21T01:59:12;35.57;;;16.87;;
29954;SDS011;68448;51.188;6.868;2023-11-21T02:01:41;42.90;;;18.10;;
29954;SDS011;68448;51.188;6.868;2023-11-21T02:04:08;34.93;;;17.27;;
29954;SDS011;68448;51.188;6.868;2023-11-21T02:06:35;35.27;;;16.40;;
29954;SDS011;68448;51.188;6.868;2023-11-21T02:09:03;37.33;;;15.63;;
29954;SDS011;68448;51.188;6.868;2023-11-21T02:11:31;33.43;;;16.53;;
29954;SDS011;68448;51.188;6.868;2023-11-21T02:13:58;45.13;;;19.37;;
29954;SDS011;68448;51.188;6.868;2023-11-21T02:16:26;38.20;;;17.80;;
29954;SDS011;68448;51.188;6.868;2023-11-21T02:18:53;41.57;;;16.53;;
29954;SDS011;68448;51.188;6.868;2023-11-21T02:21:20;32.50;;;15.60;;
29954;SDS011;68448;51.188;6.868;2023-11-21T02:23:49;37.70;;;15.87;;
29954;SDS011;68448;51.188;6.868;2023-11-21T02:26:16;39.37;;;17.63;;
29954;SDS011;68448;51.188;6.868;2023-11-21T02:28:44;37.20;;;17.27;;
29954;SDS011;68448;51.188;6.868;2023-11-21T02:31:13;37.90;;;17.10;;
29954;SDS011;68448;51.188;6.868;2023-11-21T02:33:40;47.50;;;18.70;;
29954;SDS011;68448;51.188;6.868;2023-11-21T02:36:07;37.80;;;17.60;;
29954;SDS011;68448;51.188;6.868;2023-11-21T02:38:34;31.53;;;15.90;;
29954;SDS011;68448;51.188;6.868;2023-11-21T02:41:03;32.20;;;16.67;;
29954;SDS011;68448;51.188;6.868;2023-11-21T02:43:31;46.30;;;17.27;;
29954;SDS011;68448;51.188;6.868;2023-11-21T02:45:59;33.90;;;16.40;;
29954;SDS011;68448;51.188;6.868;2023-11-21T02:48:26;35.50;;;15.07;;
29954;SDS011;68448;51.188;6.868;2023-11-21T02:50:53;38.50;;;17.63;;
29954;SDS011;68448;51.188;6.868;2023-11-21T02:53:20;35.27;;;17.20;;
29954;SDS011;68448;51.188;6.868;2023-11-21T02:55:47;35.37;;;16.60;;
29954;SDS011;68448;51.188;6.868;2023-11-21T02:58:16;36.20;;;16.40;;
29954;SDS011;68448;51.188;6.868;2023-11-21T03:00:43;35.67;;;17.53;;
29954;SDS011;68448;51.188;6.868;2023-11-21T03:03:10;34.53;;;17.40;;
29954;SDS011;68448;51.188;6.868;2023-11-21T03:05:37;39.50;;;19.40;;
29954;SDS011;68448;51.188;6.868;2023-11-21T03:08:06;35.93;;;17.73;;
29954;SDS011;68448;51.188;6.868;2023-11-21T03:10:33;37.20;;;17.97;;
29954;SDS011;68448;51.188;6.868;2023-11-21T03:13:00;50.73;;;18.53;;
29954;SDS011;68448;51.188;6.868;2023-11-21T03:15:28;36.80;;;17.43;;
29954;SDS011;68448;51.188;6.868;2023-11-21T03:17:57;33.87;;;17.40;;
29954;SDS011;68448;51.188;6.868;2023-11-21T03:20:24;36.63;;;17.70;;
29954;SDS011;68448;51.188;6.868;2023-11-21T03:22:51;33.53;;;16.40;;
29954;SDS011;68448;51.188;6.868;2023-11-21T03:25:19;37.73;;;17.93;;
29954;SDS011;68448;51.188;6.868;2023-11-21T03:27:46;36.60;;;18.00;;
29954;SDS011;68448;51.188;6.868;2023-11-21T03:30:14;48.13;;;17.50;;
29954;SDS011;68448;51.188;6.868;2023-11-21T03:32:42;39.70;;;17.20;;
29954;SDS011;68448;51.188;6.868;2023-11-21T03:35:09;39.70;;;18.07;;
29954;SDS011;68448;51.188;6.868;2023-11-21T03:37:36;55.73;;;20.90;;
29954;SDS011;68448;51.188;6.868;2023-11-21T03:40:04;51.57;;;20.00;;
29954;SDS011;68448;51.188;6.868;2023-11-21T03:42:31;41.60;;;18.60;;
29954;SDS011;68448;51.188;6.868;2023-11-21T03:44:58;39.33;;;17.00;;
29954;SDS011;68448;51.188;6.868;2023-11-21T03:47:25;43.93;;;18.83;;
29954;SDS011;68448;51.188;6.868;2023-11-21T03:49:54;44.97;;;17.30;;
29954;SDS011;68448;51.188;6.868;2023-11-21T03:52:21;45.80;;;17.50;;
29954;SDS011;68448;51.188;6.868;2023-11-21T03:54:48;37.10;;;17.83;;
29954;SDS011;68448;51.188;6.868;2023-11-21T03:57:15;51.30;;;18.73;;
29954;SDS011;68448;51.188;6.868;2023-11-21T03:59:43;37.90;;;17.40;;
29954;SDS011;68448;51.188;6.868;2023-11-21T04:02:10;45.90;;;18.57;;
29954;SDS011;68448;51.188;6.868;2023-11-21T04:04:37;39.73;;;17.90;;
29954;SDS011;68448;51.188;6.868;2023-11-21T04:07:06;39.07;;;17.50;;
29954;SDS011;68448;51.188;6.868;2023-11-21T04:09:33;40.80;;;17.23;;
29954;SDS011;68448;51.188;6.868;2023-11-21T04:12:00;38.47;;;16.27;;
29954;SDS011;68448;51.188;6.868;2023-11-21T04:14:27;40.83;;;17.83;;
29954;SDS011;68448;51.188;6.868;2023-11-21T04:16:54;49.10;;;19.80;;
29954;SDS011;68448;51.188;6.868;2023-11-21T04:19:22;45.50;;;18.90;;
29954;SDS011;68448;51.188;6.868;2023-11-21T04:21:49;46.17;;;18.20;;
29954;SDS011;68448;51.188;6.868;2023-11-21T04:24:17;39.20;;;19.30;;
29954;SDS011;68448;51.188;6.868;2023-11-21T04:26:44;41.97;;;18.77;;
29954;SDS011;68448;51.188;6.868;2023-11-21T04:29:12;41.37;;;18.80;;
29954;SDS011;68448;51.188;6.868;2023-11-21T04:31:39;45.77;;;19.80;;
29954;SDS011;68448;51.188;6.868;2023-11-21T04:34:06;41.67;;;19.00;;
29954;SDS011;68448;51.188;6.868;2023-11-21T04:36:33;42.33;;;19.00;;
29954;SDS011;68448;51.188;6.868;2023-11-21T04:39:00;38.50;;;17.87;;
29954;SDS011;68448;51.188;6.868;2023-11-21T04:41:29;37.40;;;18.17;;
29954;SDS011;68448;51.188;6.868;2023-11-21T04:43:56;45.63;;;18.40;;
29954;SDS011;68448;51.188;6.868;2023-11-21T04:46:23;41.97;;;20.23;;
29954;SDS011;68448;51.188;6.868;2023-11-21T04:48:50;47.80;;;19.77;;
29954;SDS011;68448;51.188;6.868;2023-11-21T04:51:17;46.17;;;19.30;;
29954;SDS011;68448;51.188;6.868;2023-11-21T04:53:44;48.43;;;19.80;;
29954;SDS011;68448;51.188;6.868;2023-11-21T04:56:11;50.43;;;21.23;;
29954;SDS011;68448;51.188;6.868;2023-11-21T04:58:40;41.17;;;19.20;;
29954;SDS011;68448;51.188;6.868;2023-11-21T05:01:07;45.10;;;19.80;;
29954;SDS011;68448;51.188;6.868;2023-11-21T05:03:35;57.70;;;22.00;;
29954;SDS011;68448;51.188;6.868;2023-11-21T05:06:02;43.70;;;20.27;;
29954;SDS011;68448;51.188;6.868;2023-11-21T05:08:29;42.03;;;19.90;;
29954;SDS011;68448;51.188;6.868;2023-11-21T05:10:56;51.63;;;20.50;;
29954;SDS011;68448;51.188;6.868;2023-11-21T05:13:23;48.27;;;22.17;;
29954;SDS011;68448;51.188;6.868;2023-11-21T05:15:52;50.40;;;21.47;;
29954;SDS011;68448;51.188;6.868;2023-11-21T05:18:19;57.10;;;20.70;;
29954;SDS011;68448;51.188;6.868;2023-11-21T05:20:46;46.53;;;20.63;;
29954;SDS011;68448;51.188;6.868;2023-11-21T05:23:13;43.53;;;20.63;;
29954;SDS011;68448;51.188;6.868;2023-11-21T05:25:40;47.90;;;22.30;;
29954;SDS011;68448;51.188;6.868;2023-11-21T05:28:08;49.43;;;20.73;;
29954;SDS011;68448;51.188;6.868;2023-11-21T05:30:35;45.07;;;19.73;;
29954;SDS011;68448;51.188;6.868;2023-11-21T05:33:04;48.40;;;21.00;;
29954;SDS011;68448;51.188;6.868;2023-11-21T05:35:31;50.30;;;21.07;;
29954;SDS011;68448;51.188;6.868;2023-11-21T05:37:58;51.93;;;21.97;;
29954;SDS011;68448;51.188;6.868;2023-11-21T05:40:25;42.20;;;20.77;;
29954;SDS011;68448;51.188;6.868;2023-11-21T05:42:52;42.03;;;20.90;;
29954;SDS011;68448;51.188;6.868;2023-11-21T05:45:20;50.93;;;21.43;;
29954;SDS011;68448;51.188;6.868;2023-11-21T05:47:47;46.97;;;20.37;;
29954;SDS011;68448;51.188;6.868;2023-11-21T05:50:16;48.73;;;20.77;;
29954;SDS011;68448;51.188;6.868;2023-11-21T05:52:43;55.90;;;21.70;;
29954;SDS011;68448;51.188;6.868;2023-11-21T05:55:11;47.47;;;19.17;;
29954;SDS011;68448;51.188;6.868;2023-11-21T05:57:38;51.83;;;20.40;;
29954;SDS011;68448;51.188;6.868;2023-11-21T06:00:06;49.10;;;22.17;;
29954;SDS011;68448;51.188;6.868;2023-11-21T06:02:34;58.60;;;22.37;;
29954;SDS011;68448;51.188;6.868;2023-11-21T06:05:01;47.93;;;21.90;;
29954;SDS011;68448;51.188;6.868;2023-11-21T06:07:29;42.67;;;20.67;;
29954;SDS011;68448;51.188;6.868;2023-11-21T06:09:59;48.67;;;21.30;;
29954;SDS011;68448;51.188;6.868;2023-11-21T06:12:26;60.40;;;24.43;;
29954;SDS011;68448;51.188;6.868;2023-11-21T06:14:53;67.13;;;26.27;;
29954;SDS011;68448;51.188;6.868;2023-11-21T06:17:20;65.20;;;25.93;;
29954;SDS011;68448;51.188;6.868;2023-11-21T06:19:48;67.93;;;25.43;;
29954;SDS011;68448;51.188;6.868;2023-11-21T06:22:15;78.23;;;29.33;;
29954;SDS011;68448;51.188;6.868;2023-11-21T06:24:43;65.83;;;26.87;;
29954;SDS011;68448;51.188;6.868;2023-11-21T06:27:10;75.00;;;28.17;;
29954;SDS011;68448;51.188;6.868;2023-11-21T06:29:37;69.73;;;28.30;;
29954;SDS011;68448;51.188;6.868;2023-11-21T06:32:05;71.23;;;27.90;;
29954;SDS011;68448;51.188;6.868;2023-11-21T06:34:32;79.60;;;29.30;;
29954;SDS011;68448;51.188;6.868;2023-11-21T06:36:59;67.10;;;27.90;;
29954;SDS011;68448;51.188;6.868;2023-11-21T06:39:26;75.97;;;30.50;;
29954;SDS011;68448;51.188;6.868;2023-11-21T06:41:55;72.40;;;29.83;;
29954;SDS011;68448;51.188;6.868;2023-11-21T06:44:22;71.00;;;30.07;;
29954;SDS011;68448;51.188;6.868;2023-11-21T06:46:49;92.60;;;32.50;;
29954;SDS011;68448;51.188;6.868;2023-11-21T06:49:16;88.10;;;32.23;;
29954;SDS011;68448;51.188;6.868;2023-11-21T06:51:43;85.67;;;30.80;;
29954;SDS011;68448;51.188;6.868;2023-11-21T06:54:11;92.17;;;32.57;;
29954;SDS011;68448;51.188;6.868;2023-11-21T06:56:38;80.80;;;32.17;;
29954;SDS011;68448;51.188;6.868;2023-11-21T06:59:06;68.63;;;31.30;;
29954;SDS011;68448;51.188;6.868;2023-11-21T07:01:33;81.17;;;29.67;;
29954;SDS011;68448;51.188;6.868;2023-11-21T07:04:00;81.20;;;28.03;;
29954;SDS011;68448;51.188;6.868;2023-11-21T07:06:28;77.37;;;31.50;;
29954;SDS011;68448;51.188;6.868;2023-11-21T07:08:55;69.90;;;27.03;;
29954;SDS011;68448;51.188;6.868;2023-11-21T07:11:22;70.33;;;27.57;;
29954;SDS011;68448;51.188;6.868;2023-11-21T07:13:49;83.03;;;30.83;;
29954;SDS011;68448;51.188;6.868;2023-11-21T07:16:18;76.47;;;29.00;;
29954;SDS011;68448;51.188;6.868;2023-11-21T07:18:45;73.20;;;28.77;;
29954;SDS011;68448;51.188;6.868;2023-11-21T07:21:13;76.53;;;30.37;;
29954;SDS011;68448;51.188;6.868;2023-11-21T07:23:40;67.73;;;28.43;;
29954;SDS011;68448;51.188;6.868;2023-11-21T07:26:07;59.40;;;23.73;;
29954;SDS011;68448;51.188;6.868;2023-11-21T07:28:34;66.53;;;24.47;;
29954;SDS011;68448;51.188;6.868;2023-11-21T07:31:01;54.87;;;23.30;;
29954;SDS011;68448;51.188;6.868;2023-11-21T07:33:30;55.87;;;22.50;;
29954;SDS011;68448;51.188;6.868;2023-11-21T07:35:57;50.10;;;22.80;;
29954;SDS011;68448;51.188;6.868;2023-11-21T07:38:24;49.60;;;21.70;;
29954;SDS011;68448;51.188;6.868;2023-11-21T07:40:51;47.57;;;22.50;;
29954;SDS011;68448;51.188;6.868;2023-11-21T07:43:18;51.70;;;22.93;;
29954;SDS011;68448;51.188;6.868;2023-11-21T07:45:45;49.53;;;22.33;;
29954;SDS011;68448;51.188;6.868;2023-11-21T07:48:12;44.17;;;21.93;;
29954;SDS011;68448;51.188;6.868;2023-11-21T07:50:41;46.03;;;20.93;;
29954;SDS011;68448;51.188;6.868;2023-11-21T07:53:08;56.20;;;22.57;;
29954;SDS011;68448;51.188;6.868;2023-11-21T07:55:35;50.20;;;22.87;;
29954;SDS011;68448;51.188;6.868;2023-11-21T07:58:02;66.90;;;26.20;;
29954;SDS011;68448;51.188;6.868;2023-11-21T08:00:29;84.17;;;27.00;;
29954;SDS011;68448;51.188;6.868;2023-11-21T08:02:56;66.23;;;24.00;;
29954;SDS011;68448;51.188;6.868;2023-11-21T08:05:24;67.63;;;25.90;;
29954;SDS011;68448;51.188;6.868;2023-11-21T08:08:04;67.17;;;25.13;;
29954;SDS011;68448;51.188;6.868;2023-11-21T08:10:31;79.57;;;28.10;;
29954;SDS011;68448;51.188;6.868;2023-11-21T08:12:58;70.73;;;26.43;;
29954;SDS011;68448;51.188;6.868;2023-11-21T08:15:25;76.80;;;28.53;;
29954;SDS011;68448;51.188;6.868;2023-11-21T08:17:52;64.50;;;26.80;;
29954;SDS011;68448;51.188;6.868;2023-11-21T08:20:20;54.60;;;25.23;;
29954;SDS011;68448;51.188;6.868;2023-11-21T08:22:47;49.20;;;21.30;;
29954;SDS011;68448;51.188;6.868;2023-11-21T08:25:16;43.00;;;21.37;;
29954;SDS011;68448;51.188;6.868;2023-11-21T08:27:43;51.60;;;23.70;;
29954;SDS011;68448;51.188;6.868;2023-11-21T08:30:10;64.37;;;25.10;;
29954;SDS011;68448;51.188;6.868;2023-11-21T08:32:38;57.20;;;22.80;;
29954;SDS011;68448;51.188;6.868;2023-11-21T08:35:05;62.00;;;23.40;;
29954;SDS011;68448;51.188;6.868;2023-11-21T08:37:32;49.37;;;20.47;;
29954;SDS011;68448;51.188;6.868;2023-11-21T08:39:59;52.77;;;22.03;;
29954;SDS011;68448;51.188;6.868;2023-11-21T08:42:28;83.17;;;24.27;;
29954;SDS011;68448;51.188;6.868;2023-11-21T08:44:55;52.27;;;21.90;;
29954;SDS011;68448;51.188;6.868;2023-11-21T08:47:22;55.90;;;23.67;;
29954;SDS011;68448;51.188;6.868;2023-11-21T08:49:49;62.63;;;22.40;;
29954;SDS011;68448;51.188;6.868;2023-11-21T08:52:17;68.90;;;26.67;;
29954;SDS011;68448;51.188;6.868;2023-11-21T08:54:45;56.33;;;25.57;;
29954;SDS011;68448;51.188;6.868;2023-11-21T08:57:12;79.07;;;30.07;;
29954;SDS011;68448;51.188;6.868;2023-11-21T08:59:41;68.83;;;29.40;;
29954;SDS011;68448;51.188;6.868;2023-11-21T09:02:08;75.60;;;28.90;;
29954;SDS011;68448;51.188;6.868;2023-11-21T09:04:35;69.37;;;26.27;;
29954;SDS011;68448;51.188;6.868;2023-11-21T09:07:03;61.73;;;27.27;;
29954;SDS011;68448;51.188;6.868;2023-11-21T09:09:30;64.63;;;26.57;;
29954;SDS011;68448;51.188;6.868;2023-11-21T09:11:57;62.17;;;25.67;;
29954;SDS011;68448;51.188;6.868;2023-11-21T09:14:24;61.03;;;25.27;;
29954;SDS011;68448;51.188;6.868;2023-11-21T09:16:53;68.37;;;28.53;;
29954;SDS011;68448;51.188;6.868;2023-11-21T09:19:20;85.27;;;29.03;;
29954;SDS011;68448;51.188;6.868;2023-11-21T09:21:47;65.63;;;26.50;;
29954;SDS011;68448;51.188;6.868;2023-11-21T09:24:14;72.83;;;27.33;;
29954;SDS011;68448;51.188;6.868;2023-11-21T09:26:41;64.40;;;26.63;;
29954;SDS011;68448;51.188;6.868;2023-11-21T09:29:08;64.23;;;28.90;;
29954;SDS011;68448;51.188;6.868;2023-11-21T09:31:35;57.10;;;26.53;;
29954;SDS011;68448;51.188;6.868;2023-11-21T09:34:04;69.33;;;29.90;;
29954;SDS011;68448;51.188;6.868;2023-11-21T09:36:31;74.23;;;30.40;;
29954;SDS011;68448;51.188;6.868;2023-11-21T09:38:58;69.53;;;29.63;;
29954;SDS011;68448;51.188;6.868;2023-11-21T09:41:26;74.27;;;29.77;;
29954;SDS011;68448;51.188;6.868;2023-11-21T09:43:57;70.43;;;31.20;;
29954;SDS011;68448;51.188;6.868;2023-11-21T09:46:24;74.87;;;27.70;;
29954;SDS011;68448;51.188;6.868;2023-11-21T09:48:54;74.10;;;27.90;;
29954;SDS011;68448;51.188;6.868;2023-11-21T09:51:22;64.00;;;27.37;;
29954;SDS011;68448;51.188;6.868;2023-11-21T09:53:51;83.07;;;28.23;;
29954;SDS011;68448;51.188;6.868;2023-11-21T09:56:18;74.93;;;27.63;;
29954;SDS011;68448;51.188;6.868;2023-11-21T09:58:46;59.67;;;28.30;;
29954;SDS011;68448;51.188;6.868;2023-11-21T10:01:15;68.73;;;30.00;;
29954;SDS011;68448;51.188;6.868;2023-11-21T10:03:43;73.33;;;28.67;;
29954;SDS011;68448;51.188;6.868;2023-11-21T10:06:12;60.30;;;26.53;;
29954;SDS011;68448;51.188;6.868;2023-11-21T10:08:41;64.70;;;28.20;;
29954;SDS011;68448;51.188;6.868;2023-11-21T10:11:20;61.13;;;25.63;;
29954;SDS011;68448;51.188;6.868;2023-11-21T10:13:49;64.07;;;26.50;;
29954;SDS011;68448;51.188;6.868;2023-11-21T10:16:16;66.37;;;28.80;;
29954;SDS011;68448;51.188;6.868;2023-11-21T10:18:45;63.43;;;26.77;;
29954;SDS011;68448;51.188;6.868;2023-11-21T10:21:13;56.47;;;25.17;;
29954;SDS011;68448;51.188;6.868;2023-11-21T10:23:42;60.57;;;26.73;;
29954;SDS011;68448;51.188;6.868;2023-11-21T10:26:09;56.77;;;26.90;;
29954;SDS011;68448;51.188;6.868;2023-11-21T10:28:57;66.33;;;27.60;;
29954;SDS011;68448;51.188;6.868;2023-11-21T10:31:24;52.70;;;25.70;;
29954;SDS011;68448;51.188;6.868;2023-11-21T10:33:51;64.80;;;28.60;;
29954;SDS011;68448;51.188;6.868;2023-11-21T10:36:25;64.23;;;26.00;;
29954;SDS011;68448;51.188;6.868;2023-11-21T10:38:54;68.27;;;29.93;;
29954;SDS011;68448;51.188;6.868;2023-11-21T10:41:21;73.73;;;28.17;;
29954;SDS011;68448;51.188;6.868;2023-11-21T10:43:48;63.47;;;26.60;;
29954;SDS011;68448;51.188;6.868;2023-11-21T10:46:15;65.97;;;27.90;;
29954;SDS011;68448;51.188;6.868;2023-11-21T10:48:42;72.33;;;28.83;;
29954;SDS011;68448;51.188;6.868;2023-11-21T10:51:10;63.03;;;27.87;;
29954;SDS011;68448;51.188;6.868;2023-11-21T10:53:38;57.53;;;24.53;;
29954;SDS011;68448;51.188;6.868;2023-11-21T10:56:08;65.33;;;28.23;;
29954;SDS011;68448;51.188;6.868;2023-11-21T10:58:35;53.80;;;25.13;;
29954;SDS011;68448;51.188;6.868;2023-11-21T11:01:02;60.03;;;26.70;;
29954;SDS011;68448;51.188;6.868;2023-11-21T11:03:32;70.80;;;29.00;;
29954;SDS011;68448;51.188;6.868;2023-11-21T11:06:02;59.73;;;27.87;;
29954;SDS011;68448;51.188;6.868;2023-11-21T11:08:30;71.17;;;29.30;;
29954;SDS011;68448;51.188;6.868;2023-11-21T11:10:58;75.77;;;29.87;;
29954;SDS011;68448;51.188;6.868;2023-11-21T11:13:27;67.43;;;28.87;;
29954;SDS011;68448;51.188;6.868;2023-11-21T11:15:56;58.13;;;27.27;;
29954;SDS011;68448;51.188;6.868;2023-11-21T11:18:24;73.40;;;26.83;;
29954;SDS011;68448;51.188;6.868;2023-11-21T11:20:51;65.93;;;28.37;;
29954;SDS011;68448;51.188;6.868;2023-11-21T11:23:28;61.40;;;26.83;;
29954;SDS011;68448;51.188;6.868;2023-11-21T11:26:02;60.60;;;26.70;;
29954;SDS011;68448;51.188;6.868;2023-11-21T11:28:38;60.40;;;26.90;;
29954;SDS011;68448;51.188;6.868;2023-11-21T11:31:10;70.77;;;30.13;;
29954;SDS011;68448;51.188;6.868;2023-11-21T11:33:39;72.50;;;30.60;;
29954;SDS011;68448;51.188;6.868;2023-11-21T11:36:10;69.90;;;30.40;;
29954;SDS011;68448;51.188;6.868;2023-11-21T11:38:44;71.60;;;30.10;;
29954;SDS011;68448;51.188;6.868;2023-11-21T11:41:12;84.33;;;31.93;;
29954;SDS011;68448;51.188;6.868;2023-11-21T11:43:40;79.33;;;33.13;;
29954;SDS011;68448;51.188;6.868;2023-11-21T11:46:07;78.13;;;35.07;;
29954;SDS011;68448;51.188;6.868;2023-11-21T11:48:35;81.33;;;31.90;;
29954;SDS011;68448;51.188;6.868;2023-11-21T11:51:05;83.27;;;32.77;;
29954;SDS011;68448;51.188;6.868;2023-11-21T11:53:35;89.50;;;32.17;;
29954;SDS011;68448;51.188;6.868;2023-11-21T11:56:19;84.73;;;32.10;;
29954;SDS011;68448;51.188;6.868;2023-11-21T11:58:48;72.50;;;30.13;;
29954;SDS011;68448;51.188;6.868;2023-11-21T12:01:16;87.13;;;34.17;;
29954;SDS011;68448;51.188;6.868;2023-11-21T12:03:43;66.53;;;28.87;;
29954;SDS011;68448;51.188;6.868;2023-11-21T12:06:10;71.17;;;31.10;;
29954;SDS011;68448;51.188;6.868;2023-11-21T12:08:38;65.97;;;28.07;;
29954;SDS011;68448;51.188;6.868;2023-11-21T12:11:05;79.17;;;28.30;;
29954;SDS011;68448;51.188;6.868;2023-11-21T12:13:32;67.50;;;28.10;;
29954;SDS011;68448;51.188;6.868;2023-11-21T12:16:00;71.83;;;29.13;;
29954;SDS011;68448;51.188;6.868;2023-11-21T12:18:28;61.63;;;27.07;;
29954;SDS011;68448;51.188;6.868;2023-11-21T12:20:55;67.77;;;27.33;;
29954;SDS011;68448;51.188;6.868;2023-11-21T12:23:22;65.53;;;26.63;;
29954;SDS011;68448;51.188;6.868;2023-11-21T12:25:49;65.27;;;25.10;;
29954;SDS011;68448;51.188;6.868;2023-11-21T12:28:16;57.77;;;25.63;;
29954;SDS011;68448;51.188;6.868;2023-11-21T12:30:43;64.57;;;23.77;;
29954;SDS011;68448;51.188;6.868;2023-11-21T12:33:12;70.17;;;25.77;;
29954;SDS011;68448;51.188;6.868;2023-11-21T12:35:39;59.80;;;26.00;;
29954;SDS011;68448;51.188;6.868;2023-11-21T12:38:06;59.20;;;25.43;;
29954;SDS011;68448;51.188;6.868;2023-11-21T12:40:33;59.50;;;24.70;;
29954;SDS011;68448;51.188;6.868;2023-11-21T12:43:00;61.70;;;25.03;;
29954;SDS011;68448;51.188;6.868;2023-11-21T12:45:28;53.20;;;23.67;;
29954;SDS011;68448;51.188;6.868;2023-11-21T12:47:56;54.40;;;25.57;;
29954;SDS011;68448;51.188;6.868;2023-11-21T12:50:25;57.03;;;24.93;;
29954;SDS011;68448;51.188;6.868;2023-11-21T12:52:53;53.40;;;23.63;;
29954;SDS011;68448;51.188;6.868;2023-11-21T12:55:20;55.20;;;23.17;;
29954;SDS011;68448;51.188;6.868;2023-11-21T12:57:48;59.47;;;25.07;;
29954;SDS011;68448;51.188;6.868;2023-11-21T13:00:15;56.07;;;25.67;;
29954;SDS011;68448;51.188;6.868;2023-11-21T13:02:43;57.40;;;25.80;;
29954;SDS011;68448;51.188;6.868;2023-11-21T13:05:10;68.83;;;26.20;;
29954;SDS011;68448;51.188;6.868;2023-11-21T13:07:41;72.60;;;28.40;;
29954;SDS011;68448;51.188;6.868;2023-11-21T13:10:09;61.07;;;23.87;;
29954;SDS011;68448;51.188;6.868;2023-11-21T13:12:36;60.63;;;26.20;;
29954;SDS011;68448;51.188;6.868;2023-11-21T13:15:03;67.03;;;25.23;;
29954;SDS011;68448;51.188;6.868;2023-11-21T13:17:30;51.67;;;25.07;;
29954;SDS011;68448;51.188;6.868;2023-11-21T13:19:58;57.63;;;25.43;;
29954;SDS011;68448;51.188;6.868;2023-11-21T13:22:25;60.83;;;26.40;;
29954;SDS011;68448;51.188;6.868;2023-11-21T13:24:53;72.03;;;28.10;;
29954;SDS011;68448;51.188;6.868;2023-11-21T13:27:20;59.20;;;26.40;;
29954;SDS011;68448;51.188;6.868;2023-11-21T13:29:47;64.30;;;25.80;;
29954;SDS011;68448;51.188;6.868;2023-11-21T13:32:14;67.50;;;30.00;;
29954;SDS011;68448;51.188;6.868;2023-11-21T13:34:41;66.90;;;27.43;;
29954;SDS011;68448;51.188;6.868;2023-11-21T13:37:09;72.17;;;30.33;;
29954;SDS011;68448;51.188;6.868;2023-11-21T13:39:36;74.40;;;29.57;;
29954;SDS011;68448;51.188;6.868;2023-11-21T13:42:04;71.23;;;29.60;;
29954;SDS011;68448;51.188;6.868;2023-11-21T13:44:31;68.13;;;30.30;;
29954;SDS011;68448;51.188;6.868;2023-11-21T13:46:58;65.67;;;30.63;;
29954;SDS011;68448;51.188;6.868;2023-11-21T13:49:26;67.43;;;30.50;;
29954;SDS011;68448;51.188;6.868;2023-11-21T13:51:53;58.13;;;28.33;;
29954;SDS011;68448;51.188;6.868;2023-11-21T13:54:20;59.93;;;30.20;;
29954;SDS011;68448;51.188;6.868;2023-11-21T13:56:47;70.93;;;29.63;;
29954;SDS011;68448;51.188;6.868;2023-11-21T13:59:16;59.40;;;30.00;;
29954;SDS011;68448;51.188;6.868;2023-11-21T14:01:43;68.80;;;30.07;;
29954;SDS011;68448;51.188;6.868;2023-11-21T14:04:10;69.83;;;28.33;;
29954;SDS011;68448;51.188;6.868;2023-11-21T14:06:37;75.87;;;30.63;;
29954;SDS011;68448;51.188;6.868;2023-11-21T14:09:04;69.50;;;30.57;;
29954;SDS011;68448;51.188;6.868;2023-11-21T14:11:31;66.87;;;30.27;;
29954;SDS011;68448;51.188;6.868;2023-11-21T14:14:08;76.27;;;31.60;;
29954;SDS011;68448;51.188;6.868;2023-11-21T14:16:37;77.20;;;33.03;;
29954;SDS011;68448;51.188;6.868;2023-11-21T14:19:04;83.47;;;32.00;;
29954;SDS011;68448;51.188;6.868;2023-11-21T14:21:31;85.73;;;32.23;;
29954;SDS011;68448;51.188;6.868;2023-11-21T14:23:58;87.40;;;32.60;;